sensor_id;sensor_type;location;lat;lon;timestamp;P1;durP1;ratioP1;P2;durP2;ratioP2
74689;SDS011;63221;51.860;-2.188;2023-08-08T00:00:08;2.50;;;0.90;;
74689;SDS011;63221;51.860;-2.188;2023-08-08T00:02:35;2.92;;;1.20;;
74689;SDS011;63221;51.860;-2.188;2023-08-08T00:05:00;1.77;;;0.70;;
74689;SDS011;63221;51.860;-2.188;2023-08-08T00:07:26;2.25;;;0.75;;
74689;SDS011;63221;51.860;-2.188;2023-08-08T00:09:55;2.20;;;1.05;;
74689;SDS011;63221;51.860;-2.188;2023-08-08T00:12:21;3.60;;;1.00;;
74689;SDS011;63221;51.860;-2.188;2023-08-08T00:14:47;3.20;;;0.70;;
74689;SDS011;63221;51.860;-2.188;2023-08-08T00:17:12;1.57;;;1.23;;
74689;SDS011;63221;51.860;-2.188;2023-08-08T00:19:37;2.77;;;1.23;;
74689;SDS011;63221;51.860;-2.188;2023-08-08T00:22:03;2.42;;;1.38;;
74689;SDS011;63221;51.860;-2.188;2023-08-08T00:24:28;1.83;;;1.23;;
74689;SDS011;63221;51.860;-2.188;2023-08-08T00:26:54;2.20;;;0.97;;
74689;SDS011;63221;51.860;-2.188;2023-08-08T00:29:19;4.80;;;1.03;;
74689;SDS011;63221;51.860;-2.188;2023-08-08T00:31:44;1.70;;;0.83;;
74689;SDS011;63221;51.860;-2.188;2023-08-08T00:34:10;1.13;;;0.70;;
74689;SDS011;63221;51.860;-2.188;2023-08-08T00:36:35;1.43;;;0.60;;
74689;SDS011;63221;51.860;-2.188;2023-08-08T00:39:00;4.30;;;1.00;;
74689;SDS011;63221;51.860;-2.188;2023-08-08T00:41:26;3.57;;;1.60;;
74689;SDS011;63221;51.860;-2.188;2023-08-08T00:43:51;3.10;;;1.40;;
74689;SDS011;63221;51.860;-2.188;2023-08-08T00:46:18;1.80;;;0.90;;
74689;SDS011;63221;51.860;-2.188;2023-08-08T00:48:46;2.22;;;1.58;;
74689;SDS011;63221;51.860;-2.188;2023-08-08T00:51:11;3.57;;;1.60;;
74689;SDS011;63221;51.860;-2.188;2023-08-08T00:53:38;2.92;;;1.30;;
74689;SDS011;63221;51.860;-2.188;2023-08-08T00:56:03;1.23;;;1.00;;
74689;SDS011;63221;51.860;-2.188;2023-08-08T00:58:29;4.03;;;1.03;;
74689;SDS011;63221;51.860;-2.188;2023-08-08T01:00:54;2.27;;;1.40;;
74689;SDS011;63221;51.860;-2.188;2023-08-08T01:03:22;5.75;;;1.05;;
74689;SDS011;63221;51.860;-2.188;2023-08-08T01:06:00;4.72;;;0.90;;
74689;SDS011;63221;51.860;-2.188;2023-08-08T01:08:32;1.20;;;0.90;;
74689;SDS011;63221;51.860;-2.188;2023-08-08T01:11:00;3.35;;;0.90;;
74689;SDS011;63221;51.860;-2.188;2023-08-08T01:13:27;3.65;;;1.52;;
74689;SDS011;63221;51.860;-2.188;2023-08-08T01:15:54;2.80;;;1.00;;
74689;SDS011;63221;51.860;-2.188;2023-08-08T01:18:20;3.13;;;1.20;;
74689;SDS011;63221;51.860;-2.188;2023-08-08T01:20:46;1.77;;;0.87;;
74689;SDS011;63221;51.860;-2.188;2023-08-08T01:26:02;3.43;;;0.80;;
74689;SDS011;63221;51.860;-2.188;2023-08-08T01:28:28;3.28;;;0.95;;
74689;SDS011;63221;51.860;-2.188;2023-08-08T01:30:53;1.60;;;0.80;;
74689;SDS011;63221;51.860;-2.188;2023-08-08T01:33:19;3.42;;;1.15;;
74689;SDS011;63221;51.860;-2.188;2023-08-08T01:35:46;2.17;;;0.87;;
74689;SDS011;63221;51.860;-2.188;2023-08-08T01:40:49;2.08;;;1.10;;
74689;SDS011;63221;51.860;-2.188;2023-08-08T01:43:15;2.35;;;0.80;;
74689;SDS011;63221;51.860;-2.188;2023-08-08T01:45:41;3.10;;;1.00;;
74689;SDS011;63221;51.860;-2.188;2023-08-08T01:48:08;2.20;;;1.10;;
74689;SDS011;63221;51.860;-2.188;2023-08-08T01:50:34;4.95;;;1.10;;
74689;SDS011;63221;51.860;-2.188;2023-08-08T01:53:00;2.27;;;0.70;;
74689;SDS011;63221;51.860;-2.188;2023-08-08T01:55:25;6.10;;;1.43;;
74689;SDS011;63221;51.860;-2.188;2023-08-08T01:57:50;3.30;;;0.70;;
74689;SDS011;63221;51.860;-2.188;2023-08-08T02:00:16;1.87;;;0.73;;
74689;SDS011;63221;51.860;-2.188;2023-08-08T02:02:41;3.30;;;1.10;;
74689;SDS011;63221;51.860;-2.188;2023-08-08T02:05:07;3.00;;;1.07;;
74689;SDS011;63221;51.860;-2.188;2023-08-08T02:07:32;2.38;;;0.90;;
74689;SDS011;63221;51.860;-2.188;2023-08-08T02:09:57;3.43;;;1.03;;
74689;SDS011;63221;51.860;-2.188;2023-08-08T02:12:23;1.93;;;0.90;;
74689;SDS011;63221;51.860;-2.188;2023-08-08T02:14:48;2.70;;;0.70;;
74689;SDS011;63221;51.860;-2.188;2023-08-08T02:17:13;2.60;;;1.07;;
74689;SDS011;63221;51.860;-2.188;2023-08-08T02:19:39;3.33;;;1.33;;
74689;SDS011;63221;51.860;-2.188;2023-08-08T02:22:04;4.77;;;1.20;;
74689;SDS011;63221;51.860;-2.188;2023-08-08T02:24:30;1.73;;;0.83;;
74689;SDS011;63221;51.860;-2.188;2023-08-08T02:26:55;2.30;;;0.87;;
74689;SDS011;63221;51.860;-2.188;2023-08-08T02:29:21;2.85;;;1.15;;
74689;SDS011;63221;51.860;-2.188;2023-08-08T02:31:46;2.57;;;1.30;;
74689;SDS011;63221;51.860;-2.188;2023-08-08T02:34:11;2.43;;;1.40;;
74689;SDS011;63221;51.860;-2.188;2023-08-08T02:36:37;3.90;;;1.10;;
74689;SDS011;63221;51.860;-2.188;2023-08-08T02:39:02;4.30;;;1.27;;
74689;SDS011;63221;51.860;-2.188;2023-08-08T02:41:28;2.30;;;0.93;;
74689;SDS011;63221;51.860;-2.188;2023-08-08T02:43:53;1.73;;;1.30;;
74689;SDS011;63221;51.860;-2.188;2023-08-08T02:46:19;8.73;;;1.47;;
74689;SDS011;63221;51.860;-2.188;2023-08-08T02:48:44;2.50;;;1.05;;
74689;SDS011;63221;51.860;-2.188;2023-08-08T02:51:09;2.80;;;1.37;;
74689;SDS011;63221;51.860;-2.188;2023-08-08T02:53:35;3.47;;;1.17;;
74689;SDS011;63221;51.860;-2.188;2023-08-08T02:56:00;2.20;;;1.60;;
74689;SDS011;63221;51.860;-2.188;2023-08-08T02:58:26;3.73;;;1.57;;
74689;SDS011;63221;51.860;-2.188;2023-08-08T03:00:52;3.83;;;1.40;;
74689;SDS011;63221;51.860;-2.188;2023-08-08T03:03:17;2.30;;;1.33;;
74689;SDS011;63221;51.860;-2.188;2023-08-08T03:05:43;2.87;;;1.47;;
74689;SDS011;63221;51.860;-2.188;2023-08-08T03:08:10;3.30;;;1.63;;
74689;SDS011;63221;51.860;-2.188;2023-08-08T03:10:36;2.83;;;1.27;;
74689;SDS011;63221;51.860;-2.188;2023-08-08T03:13:02;3.90;;;1.33;;
74689;SDS011;63221;51.860;-2.188;2023-08-08T03:15:27;3.03;;;1.43;;
74689;SDS011;63221;51.860;-2.188;2023-08-08T03:17:53;3.20;;;1.50;;
74689;SDS011;63221;51.860;-2.188;2023-08-08T03:20:18;3.57;;;1.70;;
74689;SDS011;63221;51.860;-2.188;2023-08-08T03:22:44;2.50;;;1.00;;
74689;SDS011;63221;51.860;-2.188;2023-08-08T03:25:09;2.67;;;1.33;;
74689;SDS011;63221;51.860;-2.188;2023-08-08T03:27:35;2.25;;;1.42;;
74689;SDS011;63221;51.860;-2.188;2023-08-08T03:30:00;4.67;;;1.53;;
74689;SDS011;63221;51.860;-2.188;2023-08-08T03:32:26;4.87;;;1.90;;
74689;SDS011;63221;51.860;-2.188;2023-08-08T03:34:52;3.28;;;1.63;;
74689;SDS011;63221;51.860;-2.188;2023-08-08T03:37:18;4.63;;;1.60;;
74689;SDS011;63221;51.860;-2.188;2023-08-08T03:39:43;4.53;;;2.23;;
74689;SDS011;63221;51.860;-2.188;2023-08-08T03:42:09;3.00;;;1.57;;
74689;SDS011;63221;51.860;-2.188;2023-08-08T03:44:34;2.53;;;1.33;;
74689;SDS011;63221;51.860;-2.188;2023-08-08T03:46:59;1.83;;;0.83;;
74689;SDS011;63221;51.860;-2.188;2023-08-08T03:49:25;2.33;;;1.40;;
74689;SDS011;63221;51.860;-2.188;2023-08-08T03:51:50;3.08;;;1.38;;
74689;SDS011;63221;51.860;-2.188;2023-08-08T03:54:16;3.10;;;1.30;;
74689;SDS011;63221;51.860;-2.188;2023-08-08T03:56:42;3.50;;;1.30;;
74689;SDS011;63221;51.860;-2.188;2023-08-08T03:59:08;6.53;;;2.43;;
74689;SDS011;63221;51.860;-2.188;2023-08-08T04:01:33;4.20;;;1.83;;
74689;SDS011;63221;51.860;-2.188;2023-08-08T04:03:59;2.70;;;1.43;;
74689;SDS011;63221;51.860;-2.188;2023-08-08T04:06:24;2.85;;;1.77;;
74689;SDS011;63221;51.860;-2.188;2023-08-08T04:08:49;4.10;;;1.57;;
74689;SDS011;63221;51.860;-2.188;2023-08-08T04:11:15;2.17;;;1.20;;
74689;SDS011;63221;51.860;-2.188;2023-08-08T04:13:41;4.32;;;1.83;;
74689;SDS011;63221;51.860;-2.188;2023-08-08T04:16:07;4.53;;;2.10;;
74689;SDS011;63221;51.860;-2.188;2023-08-08T04:18:32;6.67;;;1.70;;
74689;SDS011;63221;51.860;-2.188;2023-08-08T04:20:57;2.70;;;1.50;;
74689;SDS011;63221;51.860;-2.188;2023-08-08T04:23:23;4.13;;;1.27;;
74689;SDS011;63221;51.860;-2.188;2023-08-08T04:25:50;2.42;;;1.08;;
74689;SDS011;63221;51.860;-2.188;2023-08-08T04:28:19;2.50;;;1.30;;
74689;SDS011;63221;51.860;-2.188;2023-08-08T04:30:44;3.20;;;1.40;;
74689;SDS011;63221;51.860;-2.188;2023-08-08T04:33:09;5.20;;;1.43;;
74689;SDS011;63221;51.860;-2.188;2023-08-08T04:35:35;2.30;;;1.30;;
74689;SDS011;63221;51.860;-2.188;2023-08-08T04:38:00;4.35;;;1.13;;
74689;SDS011;63221;51.860;-2.188;2023-08-08T04:40:26;3.73;;;1.60;;
74689;SDS011;63221;51.860;-2.188;2023-08-08T04:42:52;3.40;;;0.97;;
74689;SDS011;63221;51.860;-2.188;2023-08-08T04:45:17;3.13;;;1.08;;
74689;SDS011;63221;51.860;-2.188;2023-08-08T04:47:43;3.43;;;1.40;;
74689;SDS011;63221;51.860;-2.188;2023-08-08T04:50:09;2.80;;;1.67;;
74689;SDS011;63221;51.860;-2.188;2023-08-08T04:52:35;4.32;;;1.80;;
74689;SDS011;63221;51.860;-2.188;2023-08-08T04:55:01;1.80;;;1.20;;
74689;SDS011;63221;51.860;-2.188;2023-08-08T04:57:26;2.35;;;1.20;;
74689;SDS011;63221;51.860;-2.188;2023-08-08T04:59:51;4.30;;;1.50;;
74689;SDS011;63221;51.860;-2.188;2023-08-08T05:02:17;4.30;;;2.42;;
74689;SDS011;63221;51.860;-2.188;2023-08-08T05:04:43;3.60;;;1.77;;
74689;SDS011;63221;51.860;-2.188;2023-08-08T05:07:08;6.33;;;2.10;;
74689;SDS011;63221;51.860;-2.188;2023-08-08T05:09:33;3.27;;;1.50;;
74689;SDS011;63221;51.860;-2.188;2023-08-08T05:11:59;4.28;;;1.85;;
74689;SDS011;63221;51.860;-2.188;2023-08-08T05:14:24;6.63;;;2.37;;
74689;SDS011;63221;51.860;-2.188;2023-08-08T05:16:50;6.27;;;2.10;;
74689;SDS011;63221;51.860;-2.188;2023-08-08T05:19:15;4.07;;;1.63;;
74689;SDS011;63221;51.860;-2.188;2023-08-08T05:21:40;7.83;;;2.30;;
74689;SDS011;63221;51.860;-2.188;2023-08-08T05:24:06;5.38;;;1.73;;
74689;SDS011;63221;51.860;-2.188;2023-08-08T05:26:31;4.10;;;1.70;;
74689;SDS011;63221;51.860;-2.188;2023-08-08T05:28:57;3.30;;;1.63;;
74689;SDS011;63221;51.860;-2.188;2023-08-08T05:31:22;4.17;;;1.87;;
74689;SDS011;63221;51.860;-2.188;2023-08-08T05:33:48;4.15;;;1.88;;
74689;SDS011;63221;51.860;-2.188;2023-08-08T05:36:14;3.60;;;1.70;;
74689;SDS011;63221;51.860;-2.188;2023-08-08T05:38:39;3.00;;;1.35;;
74689;SDS011;63221;51.860;-2.188;2023-08-08T05:41:06;2.88;;;1.80;;
74689;SDS011;63221;51.860;-2.188;2023-08-08T05:43:31;3.77;;;2.17;;
74689;SDS011;63221;51.860;-2.188;2023-08-08T05:45:56;4.67;;;1.80;;
74689;SDS011;63221;51.860;-2.188;2023-08-08T05:48:22;4.00;;;1.60;;
74689;SDS011;63221;51.860;-2.188;2023-08-08T05:50:47;3.77;;;1.43;;
74689;SDS011;63221;51.860;-2.188;2023-08-08T05:53:13;5.57;;;1.97;;
74689;SDS011;63221;51.860;-2.188;2023-08-08T05:55:40;2.33;;;1.60;;
74689;SDS011;63221;51.860;-2.188;2023-08-08T05:58:06;2.42;;;1.42;;
74689;SDS011;63221;51.860;-2.188;2023-08-08T06:00:32;2.33;;;1.23;;
74689;SDS011;63221;51.860;-2.188;2023-08-08T06:02:57;3.60;;;1.13;;
74689;SDS011;63221;51.860;-2.188;2023-08-08T06:05:22;3.17;;;1.93;;
74689;SDS011;63221;51.860;-2.188;2023-08-08T06:07:49;3.42;;;1.50;;
74689;SDS011;63221;51.860;-2.188;2023-08-08T06:10:14;4.27;;;1.57;;
74689;SDS011;63221;51.860;-2.188;2023-08-08T06:12:40;4.05;;;1.30;;
74689;SDS011;63221;51.860;-2.188;2023-08-08T06:15:05;2.60;;;1.10;;
74689;SDS011;63221;51.860;-2.188;2023-08-08T06:17:31;3.78;;;1.50;;
74689;SDS011;63221;51.860;-2.188;2023-08-08T06:19:57;4.07;;;1.60;;
74689;SDS011;63221;51.860;-2.188;2023-08-08T06:22:23;3.50;;;1.50;;
74689;SDS011;63221;51.860;-2.188;2023-08-08T06:24:48;2.33;;;1.38;;
74689;SDS011;63221;51.860;-2.188;2023-08-08T06:27:14;4.03;;;1.30;;
74689;SDS011;63221;51.860;-2.188;2023-08-08T06:29:39;4.53;;;2.10;;
74689;SDS011;63221;51.860;-2.188;2023-08-08T06:32:05;2.23;;;1.10;;
74689;SDS011;63221;51.860;-2.188;2023-08-08T06:34:30;2.63;;;1.23;;
74689;SDS011;63221;51.860;-2.188;2023-08-08T06:36:56;3.03;;;1.95;;
74689;SDS011;63221;51.860;-2.188;2023-08-08T06:39:21;4.20;;;1.67;;
74689;SDS011;63221;51.860;-2.188;2023-08-08T06:41:47;4.53;;;1.60;;
74689;SDS011;63221;51.860;-2.188;2023-08-08T06:44:12;3.35;;;1.60;;
74689;SDS011;63221;51.860;-2.188;2023-08-08T06:46:38;2.67;;;1.50;;
74689;SDS011;63221;51.860;-2.188;2023-08-08T06:49:03;2.67;;;1.27;;
74689;SDS011;63221;51.860;-2.188;2023-08-08T06:51:29;6.32;;;1.67;;
74689;SDS011;63221;51.860;-2.188;2023-08-08T06:53:54;3.40;;;1.10;;
74689;SDS011;63221;51.860;-2.188;2023-08-08T06:56:20;4.00;;;1.40;;
74689;SDS011;63221;51.860;-2.188;2023-08-08T06:58:45;2.35;;;0.93;;
74689;SDS011;63221;51.860;-2.188;2023-08-08T07:01:11;2.40;;;1.20;;
74689;SDS011;63221;51.860;-2.188;2023-08-08T07:03:36;3.07;;;1.70;;
74689;SDS011;63221;51.860;-2.188;2023-08-08T07:06:05;3.83;;;1.10;;
74689;SDS011;63221;51.860;-2.188;2023-08-08T07:08:31;4.13;;;1.38;;
74689;SDS011;63221;51.860;-2.188;2023-08-08T07:10:57;2.13;;;0.98;;
74689;SDS011;63221;51.860;-2.188;2023-08-08T07:13:22;2.33;;;1.13;;
74689;SDS011;63221;51.860;-2.188;2023-08-08T07:15:48;3.83;;;1.48;;
74689;SDS011;63221;51.860;-2.188;2023-08-08T07:18:14;2.53;;;1.07;;
74689;SDS011;63221;51.860;-2.188;2023-08-08T07:20:39;2.97;;;1.23;;
74689;SDS011;63221;51.860;-2.188;2023-08-08T07:23:05;3.57;;;1.27;;
74689;SDS011;63221;51.860;-2.188;2023-08-08T07:25:30;3.47;;;1.07;;
74689;SDS011;63221;51.860;-2.188;2023-08-08T07:27:56;2.83;;;1.40;;
74689;SDS011;63221;51.860;-2.188;2023-08-08T07:30:21;2.70;;;1.17;;
74689;SDS011;63221;51.860;-2.188;2023-08-08T07:32:46;2.40;;;0.90;;
74689;SDS011;63221;51.860;-2.188;2023-08-08T07:35:12;2.77;;;1.47;;
74689;SDS011;63221;51.860;-2.188;2023-08-08T07:37:37;2.50;;;1.03;;
74689;SDS011;63221;51.860;-2.188;2023-08-08T07:40:13;1.70;;;1.05;;
74689;SDS011;63221;51.860;-2.188;2023-08-08T07:42:39;2.10;;;1.23;;
74689;SDS011;63221;51.860;-2.188;2023-08-08T07:45:04;4.80;;;1.50;;
74689;SDS011;63221;51.860;-2.188;2023-08-08T07:47:30;2.33;;;1.00;;
74689;SDS011;63221;51.860;-2.188;2023-08-08T07:49:56;2.70;;;1.37;;
74689;SDS011;63221;51.860;-2.188;2023-08-08T07:52:22;3.13;;;0.95;;
74689;SDS011;63221;51.860;-2.188;2023-08-08T07:54:48;1.83;;;1.08;;
74689;SDS011;63221;51.860;-2.188;2023-08-08T07:57:13;4.13;;;0.90;;
74689;SDS011;63221;51.860;-2.188;2023-08-08T07:59:39;2.17;;;0.60;;
74689;SDS011;63221;51.860;-2.188;2023-08-08T08:02:04;1.50;;;0.63;;
74689;SDS011;63221;51.860;-2.188;2023-08-08T08:04:30;1.65;;;1.25;;
74689;SDS011;63221;51.860;-2.188;2023-08-08T08:06:56;2.07;;;1.10;;
74689;SDS011;63221;51.860;-2.188;2023-08-08T08:09:22;2.70;;;1.10;;
74689;SDS011;63221;51.860;-2.188;2023-08-08T08:11:47;1.60;;;1.10;;
74689;SDS011;63221;51.860;-2.188;2023-08-08T08:14:12;1.83;;;0.83;;
74689;SDS011;63221;51.860;-2.188;2023-08-08T08:16:38;1.60;;;0.63;;
74689;SDS011;63221;51.860;-2.188;2023-08-08T08:19:03;3.97;;;1.70;;
74689;SDS011;63221;51.860;-2.188;2023-08-08T08:21:29;3.10;;;1.30;;
74689;SDS011;63221;51.860;-2.188;2023-08-08T08:23:54;2.53;;;0.85;;
74689;SDS011;63221;51.860;-2.188;2023-08-08T08:26:20;2.20;;;1.27;;
74689;SDS011;63221;51.860;-2.188;2023-08-08T08:28:45;4.43;;;1.60;;
74689;SDS011;63221;51.860;-2.188;2023-08-08T08:31:11;3.63;;;0.90;;
74689;SDS011;63221;51.860;-2.188;2023-08-08T08:33:36;3.27;;;1.07;;
74689;SDS011;63221;51.860;-2.188;2023-08-08T08:36:01;2.60;;;1.13;;
74689;SDS011;63221;51.860;-2.188;2023-08-08T08:38:27;2.47;;;0.90;;
74689;SDS011;63221;51.860;-2.188;2023-08-08T08:40:53;1.95;;;0.82;;
74689;SDS011;63221;51.860;-2.188;2023-08-08T08:43:19;3.60;;;1.73;;
74689;SDS011;63221;51.860;-2.188;2023-08-08T08:45:47;2.13;;;1.00;;
74689;SDS011;63221;51.860;-2.188;2023-08-08T08:48:16;0.97;;;0.47;;
74689;SDS011;63221;51.860;-2.188;2023-08-08T08:50:43;1.83;;;0.60;;
74689;SDS011;63221;51.860;-2.188;2023-08-08T08:53:11;0.88;;;0.30;;
74689;SDS011;63221;51.860;-2.188;2023-08-08T08:55:36;0.90;;;0.40;;
74689;SDS011;63221;51.860;-2.188;2023-08-08T08:58:02;2.35;;;0.30;;
74689;SDS011;63221;51.860;-2.188;2023-08-08T09:00:28;0.57;;;0.27;;
74689;SDS011;63221;51.860;-2.188;2023-08-08T09:02:55;0.82;;;0.32;;
74689;SDS011;63221;51.860;-2.188;2023-08-08T09:05:21;0.80;;;0.50;;
74689;SDS011;63221;51.860;-2.188;2023-08-08T09:07:47;0.97;;;0.30;;
74689;SDS011;63221;51.860;-2.188;2023-08-08T09:10:14;1.48;;;0.30;;
74689;SDS011;63221;51.860;-2.188;2023-08-08T09:12:40;1.08;;;0.68;;
74689;SDS011;63221;51.860;-2.188;2023-08-08T09:15:06;0.80;;;0.50;;
74689;SDS011;63221;51.860;-2.188;2023-08-08T09:17:32;1.38;;;0.45;;
74689;SDS011;63221;51.860;-2.188;2023-08-08T09:19:58;0.80;;;0.20;;
74689;SDS011;63221;51.860;-2.188;2023-08-08T09:22:23;0.80;;;0.33;;
74689;SDS011;63221;51.860;-2.188;2023-08-08T09:24:50;1.75;;;0.68;;
74689;SDS011;63221;51.860;-2.188;2023-08-08T09:27:15;1.10;;;0.38;;
74689;SDS011;63221;51.860;-2.188;2023-08-08T09:29:41;0.67;;;0.27;;
74689;SDS011;63221;51.860;-2.188;2023-08-08T09:32:06;0.77;;;0.30;;
74689;SDS011;63221;51.860;-2.188;2023-08-08T09:34:32;0.70;;;0.30;;
74689;SDS011;63221;51.860;-2.188;2023-08-08T09:36:58;1.00;;;0.40;;
74689;SDS011;63221;51.860;-2.188;2023-08-08T09:39:25;0.80;;;0.35;;
74689;SDS011;63221;51.860;-2.188;2023-08-08T09:41:51;1.20;;;0.43;;
74689;SDS011;63221;51.860;-2.188;2023-08-08T09:44:16;1.33;;;0.40;;
74689;SDS011;63221;51.860;-2.188;2023-08-08T09:46:42;1.27;;;0.37;;
74689;SDS011;63221;51.860;-2.188;2023-08-08T09:49:08;1.07;;;0.70;;
74689;SDS011;63221;51.860;-2.188;2023-08-08T09:51:35;0.70;;;0.52;;
74689;SDS011;63221;51.860;-2.188;2023-08-08T09:54:00;0.83;;;0.60;;
74689;SDS011;63221;51.860;-2.188;2023-08-08T09:56:26;1.98;;;0.28;;
74689;SDS011;63221;51.860;-2.188;2023-08-08T09:58:53;1.85;;;0.70;;
74689;SDS011;63221;51.860;-2.188;2023-08-08T10:01:19;3.13;;;0.80;;
74689;SDS011;63221;51.860;-2.188;2023-08-08T10:03:45;3.17;;;1.08;;
74689;SDS011;63221;51.860;-2.188;2023-08-08T10:06:11;2.13;;;0.90;;
74689;SDS011;63221;51.860;-2.188;2023-08-08T10:08:36;2.28;;;0.80;;
74689;SDS011;63221;51.860;-2.188;2023-08-08T10:11:02;2.07;;;1.07;;
74689;SDS011;63221;51.860;-2.188;2023-08-08T10:13:28;2.38;;;0.73;;
74689;SDS011;63221;51.860;-2.188;2023-08-08T10:15:54;2.00;;;0.60;;
74689;SDS011;63221;51.860;-2.188;2023-08-08T10:18:23;1.92;;;0.80;;
74689;SDS011;63221;51.860;-2.188;2023-08-08T10:20:49;0.70;;;0.32;;
74689;SDS011;63221;51.860;-2.188;2023-08-08T10:23:16;1.40;;;0.73;;
74689;SDS011;63221;51.860;-2.188;2023-08-08T10:25:46;1.50;;;0.90;;
74689;SDS011;63221;51.860;-2.188;2023-08-08T10:28:14;1.40;;;0.77;;
74689;SDS011;63221;51.860;-2.188;2023-08-08T10:33:15;1.60;;;0.73;;
74689;SDS011;63221;51.860;-2.188;2023-08-08T10:36:01;1.52;;;0.65;;
74689;SDS011;63221;51.860;-2.188;2023-08-08T10:41:18;1.70;;;1.05;;
74689;SDS011;63221;51.860;-2.188;2023-08-08T10:46:14;0.88;;;0.70;;
74689;SDS011;63221;51.860;-2.188;2023-08-08T10:48:49;0.97;;;0.53;;
74689;SDS011;63221;51.860;-2.188;2023-08-08T10:51:16;1.02;;;0.70;;
74689;SDS011;63221;51.860;-2.188;2023-08-08T10:53:42;0.80;;;0.67;;
74689;SDS011;63221;51.860;-2.188;2023-08-08T10:56:11;0.70;;;0.53;;
74689;SDS011;63221;51.860;-2.188;2023-08-08T10:58:38;1.63;;;0.55;;
74689;SDS011;63221;51.860;-2.188;2023-08-08T11:01:05;1.00;;;0.90;;
74689;SDS011;63221;51.860;-2.188;2023-08-08T11:03:52;1.85;;;0.30;;
74689;SDS011;63221;51.860;-2.188;2023-08-08T11:06:32;1.55;;;0.63;;
74689;SDS011;63221;51.860;-2.188;2023-08-08T11:09:10;0.60;;;0.30;;
74689;SDS011;63221;51.860;-2.188;2023-08-08T11:14:39;0.98;;;0.80;;
74689;SDS011;63221;51.860;-2.188;2023-08-08T11:17:22;1.20;;;0.43;;
74689;SDS011;63221;51.860;-2.188;2023-08-08T11:19:52;0.88;;;0.43;;
74689;SDS011;63221;51.860;-2.188;2023-08-08T11:22:38;0.50;;;0.23;;
74689;SDS011;63221;51.860;-2.188;2023-08-08T11:25:30;0.88;;;0.20;;
74689;SDS011;63221;51.860;-2.188;2023-08-08T11:28:19;0.80;;;0.38;;
74689;SDS011;63221;51.860;-2.188;2023-08-08T11:33:50;1.60;;;1.42;;
74689;SDS011;63221;51.860;-2.188;2023-08-08T11:38:49;1.55;;;0.63;;
74689;SDS011;63221;51.860;-2.188;2023-08-08T11:41:16;1.50;;;1.02;;
74689;SDS011;63221;51.860;-2.188;2023-08-08T11:47:25;2.85;;;1.00;;
74689;SDS011;63221;51.860;-2.188;2023-08-08T11:50:11;1.83;;;0.70;;
74689;SDS011;63221;51.860;-2.188;2023-08-08T11:52:42;1.85;;;0.88;;
74689;SDS011;63221;51.860;-2.188;2023-08-08T11:58:04;3.13;;;0.95;;
74689;SDS011;63221;51.860;-2.188;2023-08-08T12:00:50;1.75;;;1.00;;
74689;SDS011;63221;51.860;-2.188;2023-08-08T12:03:45;1.77;;;1.00;;
74689;SDS011;63221;51.860;-2.188;2023-08-08T12:06:38;1.90;;;1.30;;
74689;SDS011;63221;51.860;-2.188;2023-08-08T12:09:16;2.35;;;1.20;;
74689;SDS011;63221;51.860;-2.188;2023-08-08T12:14:50;3.22;;;0.88;;
74689;SDS011;63221;51.860;-2.188;2023-08-08T12:17:26;3.43;;;1.60;;
74689;SDS011;63221;51.860;-2.188;2023-08-08T12:20:08;1.67;;;1.00;;
74689;SDS011;63221;51.860;-2.188;2023-08-08T12:22:44;3.92;;;1.23;;
74689;SDS011;63221;51.860;-2.188;2023-08-08T12:25:37;2.20;;;1.17;;
74689;SDS011;63221;51.860;-2.188;2023-08-08T12:28:18;3.30;;;1.98;;
74689;SDS011;63221;51.860;-2.188;2023-08-08T12:30:44;2.33;;;1.10;;
74689;SDS011;63221;51.860;-2.188;2023-08-08T12:36:10;3.50;;;1.48;;
74689;SDS011;63221;51.860;-2.188;2023-08-08T12:41:42;2.30;;;1.88;;
74689;SDS011;63221;51.860;-2.188;2023-08-08T12:47:51;2.05;;;1.20;;
74689;SDS011;63221;51.860;-2.188;2023-08-08T12:50:35;3.42;;;1.65;;
74689;SDS011;63221;51.860;-2.188;2023-08-08T12:59:01;3.73;;;1.73;;
74689;SDS011;63221;51.860;-2.188;2023-08-08T13:04:39;4.43;;;1.85;;
74689;SDS011;63221;51.860;-2.188;2023-08-08T13:09:54;5.00;;;1.77;;
74689;SDS011;63221;51.860;-2.188;2023-08-08T13:15:23;4.90;;;2.00;;
74689;SDS011;63221;51.860;-2.188;2023-08-08T13:18:09;2.45;;;1.35;;
74689;SDS011;63221;51.860;-2.188;2023-08-08T13:24:01;2.47;;;1.77;;
74689;SDS011;63221;51.860;-2.188;2023-08-08T13:38:21;1.20;;;0.60;;
74689;SDS011;63221;51.860;-2.188;2023-08-08T13:44:16;1.27;;;0.98;;
74689;SDS011;63221;51.860;-2.188;2023-08-08T13:46:45;1.08;;;0.77;;
74689;SDS011;63221;51.860;-2.188;2023-08-08T13:49:28;2.08;;;0.70;;
74689;SDS011;63221;51.860;-2.188;2023-08-08T13:52:27;1.30;;;1.08;;
74689;SDS011;63221;51.860;-2.188;2023-08-08T13:54:53;1.83;;;0.60;;
74689;SDS011;63221;51.860;-2.188;2023-08-08T13:57:27;2.45;;;1.15;;
74689;SDS011;63221;51.860;-2.188;2023-08-08T14:00:34;1.77;;;0.90;;
74689;SDS011;63221;51.860;-2.188;2023-08-08T14:03:07;2.58;;;1.73;;
74689;SDS011;63221;51.860;-2.188;2023-08-08T14:05:40;1.10;;;0.68;;
74689;SDS011;63221;51.860;-2.188;2023-08-08T14:08:33;2.23;;;0.97;;
74689;SDS011;63221;51.860;-2.188;2023-08-08T14:17:37;1.42;;;0.77;;
74689;SDS011;63221;51.860;-2.188;2023-08-08T14:20:06;1.90;;;0.55;;
74689;SDS011;63221;51.860;-2.188;2023-08-08T14:22:52;1.10;;;0.73;;
74689;SDS011;63221;51.860;-2.188;2023-08-08T14:25:38;2.00;;;0.77;;
74689;SDS011;63221;51.860;-2.188;2023-08-08T14:28:21;2.25;;;1.30;;
74689;SDS011;63221;51.860;-2.188;2023-08-08T14:31:20;1.42;;;0.80;;
74689;SDS011;63221;51.860;-2.188;2023-08-08T14:33:51;1.20;;;0.77;;
74689;SDS011;63221;51.860;-2.188;2023-08-08T14:36:18;1.50;;;0.73;;
74689;SDS011;63221;51.860;-2.188;2023-08-08T14:38:46;5.15;;;1.00;;
74689;SDS011;63221;51.860;-2.188;2023-08-08T14:41:14;1.30;;;0.85;;
74689;SDS011;63221;51.860;-2.188;2023-08-08T14:43:40;1.17;;;0.70;;
74689;SDS011;63221;51.860;-2.188;2023-08-08T14:46:10;0.83;;;0.60;;
74689;SDS011;63221;51.860;-2.188;2023-08-08T14:51:40;1.35;;;0.90;;
74689;SDS011;63221;51.860;-2.188;2023-08-08T14:54:08;0.90;;;0.40;;
74689;SDS011;63221;51.860;-2.188;2023-08-08T14:56:54;1.85;;;0.82;;
74689;SDS011;63221;51.860;-2.188;2023-08-08T15:02:31;3.20;;;0.90;;
74689;SDS011;63221;51.860;-2.188;2023-08-08T15:05:32;1.50;;;1.40;;
74689;SDS011;63221;51.860;-2.188;2023-08-08T15:08:33;1.13;;;0.52;;
74689;SDS011;63221;51.860;-2.188;2023-08-08T15:11:01;1.40;;;1.05;;
74689;SDS011;63221;51.860;-2.188;2023-08-08T15:19:16;1.60;;;1.00;;
74689;SDS011;63221;51.860;-2.188;2023-08-08T15:30:35;2.70;;;1.70;;
74689;SDS011;63221;51.860;-2.188;2023-08-08T15:33:02;4.35;;;1.70;;
74689;SDS011;63221;51.860;-2.188;2023-08-08T15:35:48;2.67;;;1.35;;
74689;SDS011;63221;51.860;-2.188;2023-08-08T15:38:18;1.97;;;0.87;;
74689;SDS011;63221;51.860;-2.188;2023-08-08T15:44:06;1.50;;;1.30;;
74689;SDS011;63221;51.860;-2.188;2023-08-08T15:47:01;1.48;;;0.68;;
74689;SDS011;63221;51.860;-2.188;2023-08-08T15:50:08;2.42;;;1.55;;
74689;SDS011;63221;51.860;-2.188;2023-08-08T15:52:47;1.97;;;0.83;;
74689;SDS011;63221;51.860;-2.188;2023-08-08T15:55:13;1.52;;;0.75;;
74689;SDS011;63221;51.860;-2.188;2023-08-08T15:57:59;1.98;;;1.20;;
74689;SDS011;63221;51.860;-2.188;2023-08-08T16:12:47;1.42;;;1.13;;
74689;SDS011;63221;51.860;-2.188;2023-08-08T16:15:36;1.33;;;1.17;;
74689;SDS011;63221;51.860;-2.188;2023-08-08T16:20:49;2.05;;;0.80;;
74689;SDS011;63221;51.860;-2.188;2023-08-08T16:23:25;1.30;;;0.82;;
74689;SDS011;63221;51.860;-2.188;2023-08-08T16:25:51;1.77;;;1.07;;
74689;SDS011;63221;51.860;-2.188;2023-08-08T16:28:19;1.75;;;0.70;;
74689;SDS011;63221;51.860;-2.188;2023-08-08T16:30:44;1.90;;;0.70;;
74689;SDS011;63221;51.860;-2.188;2023-08-08T16:33:13;1.10;;;0.60;;
74689;SDS011;63221;51.860;-2.188;2023-08-08T16:35:43;2.50;;;0.47;;
74689;SDS011;63221;51.860;-2.188;2023-08-08T16:38:14;1.40;;;0.60;;
74689;SDS011;63221;51.860;-2.188;2023-08-08T16:40:53;1.37;;;0.63;;